TNCE/EUX METAR and TAF weather

Enter ICAO airport designator
Station Type Date Time Source
TNCE METAR 2022/07/03 14:55 UTC NOAA

TNCE 031455Z AUTO 09019KT 060V120 //// // ///////// 31/23 Q1018 RE//


Station Type Date Time Source
TNCE Decoded METAR 2022/07/03 14:55 UTC NOAA

Roosevelt Airport Saint Eustatius, Netherlands Antilles (TNCE) 17-29N 062-59W 39M
Jul 03, 2022 - 10:55 AM EDT / 2022.07.03 1455 UTC
Wind: from the E (090 degrees) at 22 MPH (19 KT) (direction variable):0
Temperature: 87 F (31 C)
Heat index: 93.9 F (34.4 C):1
Dew Point: 73 F (23 C)
Relative Humidity: 62%
Pressure (altimeter): 30.06 in. Hg (1018 hPa)
ob: TNCE 031455Z AUTO 09019KT 060V120 //// // ///////// 31/23 Q1018 RE//
cycle: 15

Station Type Date Time Source
TNCE TAF UTC NOAA

Error!

Example: see airport list